Time;durP1;ratioP1;P1;durP2;ratioP2;P2;SDS_P1;SDS_P2;PMS_P1;PMS_P2;Temp;Humidity;BMP_temperature;BMP_pressure;BME280_temperature;BME280_humidity;BME280_pressure;Samples;Min_cycle;Max_cycle;Signal;HPM_P1;HPM_P2
2023/08/09 00:01:46;;;;;;;0.60;0.50;;;;;;;16.27;100.00;99681.34;104561;1254;59758;-53
2023/08/09 00:04:14;;;;;;;1.90;0.50;;;;;;;16.21;100.00;99682.88;104653;1254;72966;-52
2023/08/09 00:06:41;;;;;;;1.50;0.60;;;;;;;16.14;100.00;99679.80;104513;1254;66812;-51
2023/08/09 00:09:08;;;;;;;0.60;0.40;;;;;;;16.08;100.00;99676.44;104899;1259;72890;-51
2023/08/09 00:11:36;;;;;;;0.50;0.50;;;;;;;16.01;100.00;99674.55;104687;1254;63682;-50
2023/08/09 00:14:03;;;;;;;2.00;0.50;;;;;;;15.96;100.00;99674.05;104364;1256;59662;-52
2023/08/09 00:16:31;;;;;;;0.70;0.50;;;;;;;15.91;100.00;99671.52;104603;1254;71664;-51
2023/08/09 00:18:58;;;;;;;1.10;0.50;;;;;;;15.83;100.00;99669.53;104777;1254;66702;-52
2023/08/09 00:21:26;;;;;;;2.90;0.40;;;;;;;15.74;100.00;99675.57;104542;1260;70569;-52
2023/08/09 00:23:53;;;;;;;1.00;0.50;;;;;;;15.68;100.00;99676.06;104420;1256;62638;-51
2023/08/09 00:26:21;;;;;;;0.60;0.50;;;;;;;15.59;100.00;99672.84;104555;1254;59791;-51
2023/08/09 00:28:48;;;;;;;1.40;0.60;;;;;;;15.52;100.00;99669.17;104492;1254;72977;-51
2023/08/09 00:31:15;;;;;;;1.10;0.60;;;;;;;15.46;100.00;99672.09;104406;1258;67396;-52
2023/08/09 00:33:43;;;;;;;0.50;0.50;;;;;;;15.42;100.00;99673.27;104837;1260;74273;-48
2023/08/09 00:36:10;;;;;;;0.80;0.50;;;;;;;15.40;100.00;99676.38;104660;1257;59766;-51
2023/08/09 00:38:38;;;;;;;0.80;0.50;;;;;;;15.38;100.00;99675.23;104523;1254;60094;-52
2023/08/09 00:41:06;;;;;;;0.90;0.70;;;;;;;15.35;100.00;99680.86;104541;1254;73033;-52
2023/08/09 00:43:33;;;;;;;0.80;0.60;;;;;;;15.33;100.00;99680.80;104467;1260;66057;-51
2023/08/09 00:46:02;;;;;;;0.70;0.50;;;;;;;15.30;100.00;99684.27;104600;1259;72733;-50
2023/08/09 00:48:30;;;;;;;0.90;0.50;;;;;;;15.27;100.00;99680.14;104669;1254;61756;-52
2023/08/09 00:50:57;;;;;;;2.30;0.50;;;;;;;15.26;100.00;99680.73;104532;1254;61965;-50
2023/08/09 00:53:25;;;;;;;0.80;0.50;;;;;;;15.24;100.00;99683.59;108922;1254;73129;-51
2023/08/09 00:55:52;;;;;;;1.00;0.50;;;;;;;15.21;100.00;99689.96;108867;1254;65801;-51
2023/08/09 00:58:19;;;;;;;0.70;0.60;;;;;;;15.20;100.00;99689.29;108895;1254;70894;-51
2023/08/09 01:00:47;;;;;;;5.50;0.90;;;;;;;15.21;100.00;99689.23;108937;1256;60279;-52
2023/08/09 01:03:15;;;;;;;0.60;0.60;;;;;;;15.23;100.00;99692.86;109006;1257;60026;-53
2023/08/09 01:06:00;;;;;;;1.40;0.50;;;;;;;15.25;100.00;99699.09;108917;1258;73041;-52
2023/08/09 01:08:38;;;;;;;;;;;;;;;15.26;100.00;99699.38;108820;1254;65870;-51
2023/08/09 01:11:16;;;;;;;1.60;0.60;;;;;;;15.26;100.00;99701.91;108955;1254;71755;-53
2023/08/09 01:13:43;;;;;;;1.20;0.80;;;;;;;15.25;100.00;99701.06;108960;1253;60677;-52
2023/08/09 01:16:11;;;;;;;0.80;0.80;;;;;;;15.23;100.00;99697.94;109042;1254;60040;-53
2023/08/09 01:18:40;;;;;;;0.90;0.70;;;;;;;15.21;100.00;99697.19;109066;1254;73603;-53
2023/08/09 01:21:07;;;;;;;1.20;0.60;;;;;;;15.17;100.00;99702.49;109103;1254;66870;-53
2023/08/09 01:23:36;;;;;;;0.90;0.60;;;;;;;15.14;100.00;99703.73;108904;1254;72662;-52
2023/08/09 01:26:04;;;;;;;1.20;0.60;;;;;;;15.11;100.00;99705.08;106258;1257;61618;-51
2023/08/09 01:28:32;;;;;;;0.60;0.50;;;;;;;15.09;100.00;99705.40;104794;1254;59720;-50
2023/08/09 01:30:59;;;;;;;1.20;0.60;;;;;;;15.08;100.00;99706.02;104876;1254;71773;-50
2023/08/09 01:33:26;;;;;;;2.80;0.50;;;;;;;15.08;100.00;99708.35;105175;1254;67526;-49
2023/08/09 01:35:57;;;;;;;1.70;0.60;;;;;;;15.09;100.00;99711.58;104720;1252;72713;-47
2023/08/09 01:38:28;;;;;;;1.00;0.60;;;;;;;15.09;100.00;99712.95;105415;1256;60668;-48
2023/08/09 01:40:55;;;;;;;0.60;0.60;;;;;;;15.10;100.00;99717.23;104970;1260;59718;-48
2023/08/09 01:43:23;;;;;;;0.80;0.50;;;;;;;15.10;100.00;99713.48;104703;1254;71776;-49
2023/08/09 01:45:52;;;;;;;0.70;0.70;;;;;;;15.08;100.00;99718.33;104416;1254;66638;-50
2023/08/09 01:48:20;;;;;;;0.60;0.60;;;;;;;15.05;100.00;99719.40;104583;1254;72717;-47
2023/08/09 01:50:48;;;;;;;2.50;0.80;;;;;;;15.01;100.00;99720.92;105158;1257;59775;-52
2023/08/09 01:53:16;;;;;;;1.00;0.70;;;;;;;14.96;100.00;99718.93;104403;1258;60171;-48
2023/08/09 01:55:43;;;;;;;1.80;0.70;;;;;;;14.92;100.00;99722.08;106378;1259;73050;-51
2023/08/09 01:58:11;;;;;;;2.10;0.60;;;;;;;14.89;100.00;99726.81;104536;1254;67128;-49
2023/08/09 02:00:38;;;;;;;1.20;0.60;;;;;;;14.84;100.00;99720.81;104682;1259;71488;-46
2023/08/09 02:03:06;;;;;;;0.80;0.60;;;;;;;14.76;100.00;99722.98;104534;1256;61386;-48
2023/08/09 02:05:34;;;;;;;1.00;0.60;;;;;;;14.69;100.00;99720.21;104508;1258;60594;-46
2023/08/09 02:08:04;;;;;;;1.20;0.50;;;;;;;14.64;100.00;99716.54;104531;1254;74327;-49
2023/08/09 02:10:31;;;;;;;0.70;0.70;;;;;;;14.61;100.00;99719.45;107307;1257;65327;-52
2023/08/09 02:12:59;;;;;;;0.70;0.60;;;;;;;14.61;100.00;99724.15;104504;1254;72702;-49
2023/08/09 02:15:26;;;;;;;1.90;0.70;;;;;;;14.62;100.00;99733.48;104633;1252;63537;-48
2023/08/09 02:17:57;;;;;;;1.90;0.60;;;;;;;14.62;100.00;99737.66;104465;1254;60530;-48
2023/08/09 02:20:25;;;;;;;1.40;0.70;;;;;;;14.63;100.00;99738.82;104711;1254;73819;-49
2023/08/09 02:22:52;;;;;;;2.40;0.60;;;;;;;14.63;100.00;99736.11;104544;1254;65508;-52
2023/08/09 02:25:20;;;;;;;2.00;0.80;;;;;;;14.63;100.00;99736.48;104587;1254;74860;-53
2023/08/09 02:27:47;;;;;;;0.70;0.70;;;;;;;14.63;100.00;99738.48;104659;1254;61662;-50
2023/08/09 02:30:14;;;;;;;4.50;0.70;;;;;;;14.64;100.00;99740.73;104745;1253;62190;-51
2023/08/09 02:32:42;;;;;;;1.10;0.60;;;;;;;14.64;100.00;99746.52;104499;1257;73749;-51
2023/08/09 02:35:10;;;;;;;0.70;0.70;;;;;;;14.65;100.00;99748.42;105071;1253;66589;-50
2023/08/09 02:37:38;;;;;;;0.90;0.70;;;;;;;14.66;100.00;99747.66;104415;1253;72674;-47
2023/08/09 02:40:06;;;;;;;1.20;0.80;;;;;;;14.66;100.00;99752.55;104522;1255;60663;-49
2023/08/09 02:42:34;;;;;;;3.00;0.90;;;;;;;14.65;100.00;99753.88;104668;1259;60465;-49
2023/08/09 02:45:01;;;;;;;0.90;0.70;;;;;;;14.64;100.00;99762.39;105094;1254;73878;-49
2023/08/09 02:47:29;;;;;;;1.40;1.00;;;;;;;14.63;100.00;99767.22;104613;1254;65922;-48
2023/08/09 02:49:56;;;;;;;5.90;1.10;;;;;;;14.60;100.00;99767.95;104639;1254;72486;-49
2023/08/09 02:52:23;;;;;;;1.60;0.70;;;;;;;14.57;100.00;99772.98;104606;1253;61868;-48
2023/08/09 02:54:51;;;;;;;1.50;0.70;;;;;;;14.55;100.00;99772.23;105777;1254;60948;-49
2023/08/09 02:57:18;;;;;;;1.30;0.80;;;;;;;14.52;100.00;99775.32;104578;1254;75034;-50
2023/08/09 02:59:46;;;;;;;2.50;0.80;;;;;;;14.50;100.00;99775.24;104655;1256;67749;-52
2023/08/09 03:02:14;;;;;;;0.90;0.80;;;;;;;14.48;100.00;99772.50;105258;1260;71990;-51
2023/08/09 03:04:42;;;;;;;2.60;1.00;;;;;;;14.48;100.00;99771.73;104506;1253;60700;-49
2023/08/09 03:07:09;;;;;;;1.80;0.90;;;;;;;14.49;100.00;99771.19;104766;1253;60666;-48
2023/08/09 03:09:38;;;;;;;1.20;0.80;;;;;;;14.50;100.00;99774.20;104552;1259;72576;-51
2023/08/09 03:12:06;;;;;;;2.50;1.00;;;;;;;14.49;100.00;99775.69;107791;1254;66790;-49
2023/08/09 03:14:34;;;;;;;0.90;0.80;;;;;;;14.48;100.00;99779.55;104431;1254;73188;-50
2023/08/09 03:17:01;;;;;;;4.70;2.00;;;;;;;14.47;100.00;99776.70;104492;1257;61641;-51
2023/08/09 03:19:29;;;;;;;3.30;1.00;;;;;;;14.45;100.00;99775.44;104599;1253;59431;-49
2023/08/09 03:21:57;;;;;;;3.60;1.10;;;;;;;14.43;100.00;99774.98;104640;1259;75831;-47
2023/08/09 03:24:24;;;;;;;2.40;1.40;;;;;;;14.42;100.00;99776.67;104417;1254;68078;-46
2023/08/09 03:26:52;;;;;;;1.70;1.10;;;;;;;14.40;100.00;99787.63;104365;1256;72698;-49
2023/08/09 03:29:19;;;;;;;1.70;0.80;;;;;;;14.38;100.00;99791.67;104612;1260;61659;-47
2023/08/09 03:31:47;;;;;;;1.20;0.90;;;;;;;14.38;100.00;99789.52;104570;1253;60479;-49
2023/08/09 03:34:16;;;;;;;4.40;0.90;;;;;;;14.40;100.00;99791.56;108426;1253;75602;-50
2023/08/09 03:36:44;;;;;;;1.00;0.90;;;;;;;14.43;100.00;99796.66;104806;1256;65898;-49
2023/08/09 03:39:12;;;;;;;2.10;0.70;;;;;;;14.45;100.00;99801.44;106161;1256;72659;-49
2023/08/09 03:41:40;;;;;;;4.70;0.90;;;;;;;14.47;100.00;99808.30;104493;1254;62422;-52
2023/08/09 03:44:08;;;;;;;1.00;0.90;;;;;;;14.50;100.00;99813.38;109100;1254;60608;-50
2023/08/09 03:46:36;;;;;;;3.60;1.10;;;;;;;14.51;100.00;99819.10;108880;1254;73834;-51
2023/08/09 03:49:04;;;;;;;3.00;0.80;;;;;;;14.53;100.00;99815.50;105443;1254;66852;-49
2023/08/09 03:51:35;;;;;;;2.00;1.10;;;;;;;14.57;100.00;99810.16;109048;1254;71054;-48
2023/08/09 03:54:03;;;;;;;2.20;1.10;;;;;;;14.62;100.00;99812.38;108883;1254;61654;-49
2023/08/09 03:56:30;;;;;;;2.40;1.00;;;;;;;14.68;100.00;99819.06;108983;1254;60164;-49
2023/08/09 03:58:57;;;;;;;5.90;1.30;;;;;;;14.73;100.00;99828.65;108874;1253;74316;-50
2023/08/09 04:01:25;;;;;;;1.60;0.80;;;;;;;14.78;100.00;99830.90;108980;1254;67579;-51
2023/08/09 04:03:53;;;;;;;2.80;1.10;;;;;;;14.85;100.00;99835.50;108858;1254;71398;-51
2023/08/09 04:06:20;;;;;;;1.30;1.00;;;;;;;14.91;100.00;99834.89;108822;1254;60390;-53
2023/08/09 04:08:48;;;;;;;1.50;0.80;;;;;;;14.99;100.00;99839.79;108861;1254;58969;-51
2023/08/09 04:11:15;;;;;;;2.00;0.90;;;;;;;15.07;100.00;99844.16;109056;1253;73919;-51
2023/08/09 04:13:43;;;;;;;6.20;1.30;;;;;;;15.15;100.00;99850.33;109055;1254;65648;-52
2023/08/09 04:16:10;;;;;;;3.40;0.80;;;;;;;15.22;100.00;99851.66;108895;1254;71249;-50
2023/08/09 04:18:38;;;;;;;1.20;0.90;;;;;;;15.29;100.00;99858.24;109096;1253;61645;-49
2023/08/09 04:21:06;;;;;;;1.80;0.70;;;;;;;15.36;100.00;99863.21;108492;1254;60026;-51
2023/08/09 04:23:34;;;;;;;2.10;0.70;;;;;;;15.44;100.00;99863.58;105125;1254;76590;-49
2023/08/09 04:26:03;;;;;;;0.90;0.70;;;;;;;15.53;100.00;99872.36;104791;1254;67624;-48
2023/08/09 04:28:30;;;;;;;1.50;1.00;;;;;;;15.64;100.00;99876.00;104807;1259;72066;-47
2023/08/09 04:30:57;;;;;;;1.70;0.90;;;;;;;15.83;100.00;99877.80;104827;1259;60463;-49
2023/08/09 04:33:25;;;;;;;1.30;0.80;;;;;;;16.02;100.00;99885.73;105009;1254;60462;-48
2023/08/09 04:35:52;;;;;;;2.20;0.90;;;;;;;16.17;100.00;99887.38;104737;1258;74355;-48
2023/08/09 04:38:20;;;;;;;1.40;0.80;;;;;;;16.28;100.00;99894.20;104998;1259;66325;-47
2023/08/09 04:40:47;;;;;;;2.30;0.90;;;;;;;16.38;100.00;99896.20;104816;1259;72886;-48
2023/08/09 04:43:15;;;;;;;2.20;1.40;;;;;;;16.48;100.00;99904.06;105394;1254;61664;-49
2023/08/09 04:45:43;;;;;;;1.10;0.70;;;;;;;16.56;100.00;99904.02;104759;1257;60441;-47
2023/08/09 04:48:17;;;;;;;1.00;0.60;;;;;;;16.63;100.00;99906.45;106191;1256;73763;-48
2023/08/09 04:50:44;;;;;;;4.40;0.70;;;;;;;16.71;100.00;99909.17;105005;1254;67577;-46
2023/08/09 04:53:11;;;;;;;3.40;0.60;;;;;;;16.78;100.00;99916.66;104789;1259;72701;-51
2023/08/09 04:55:39;;;;;;;2.30;0.70;;;;;;;16.83;100.00;99915.89;104808;1254;60535;-50
2023/08/09 04:58:06;;;;;;;2.80;0.60;;;;;;;16.91;100.00;99919.90;104918;1254;60453;-47
2023/08/09 05:00:33;;;;;;;1.60;0.60;;;;;;;16.97;100.00;99916.34;104829;1254;73834;-48
2023/08/09 05:03:01;;;;;;;1.10;0.60;;;;;;;17.04;100.00;99920.39;104878;1253;67534;-48
2023/08/09 05:05:28;;;;;;;3.00;0.60;;;;;;;17.08;100.00;99918.68;104744;1254;72690;-48
2023/08/09 05:07:55;;;;;;;3.70;0.70;;;;;;;17.10;100.00;99924.65;104722;1254;60424;-49
2023/08/09 05:10:23;;;;;;;1.50;0.70;;;;;;;17.13;100.00;99928.23;104756;1254;61799;-48
2023/08/09 05:12:50;;;;;;;1.60;0.60;;;;;;;17.14;100.00;99933.77;104741;1257;74256;-48
2023/08/09 05:15:17;;;;;;;1.80;0.60;;;;;;;17.13;100.00;99935.48;104849;1254;66034;-47
2023/08/09 05:17:45;;;;;;;0.80;0.60;;;;;;;17.11;100.00;99933.26;104627;1260;72689;-48
2023/08/09 05:20:13;;;;;;;2.80;0.70;;;;;;;17.11;100.00;99935.80;105714;1254;61022;-51
2023/08/09 05:22:40;;;;;;;0.70;0.60;;;;;;;17.13;100.00;99939.14;105017;1254;60351;-49
2023/08/09 05:25:08;;;;;;;1.20;0.50;;;;;;;17.18;100.00;99939.13;104982;1254;74140;-50
2023/08/09 05:27:35;;;;;;;0.90;0.60;;;;;;;17.24;100.00;99944.65;105066;1256;66842;-49
2023/08/09 05:30:04;;;;;;;0.90;0.60;;;;;;;17.32;100.00;99950.40;105146;1254;74604;-49
2023/08/09 05:32:31;;;;;;;4.10;0.60;;;;;;;17.41;100.00;99951.05;104941;1254;60415;-47
2023/08/09 05:34:58;;;;;;;0.90;0.70;;;;;;;17.48;100.00;99953.27;105077;1254;60476;-49
2023/08/09 05:37:26;;;;;;;1.00;0.60;;;;;;;17.55;100.00;99957.47;105070;1254;73822;-50
2023/08/09 05:39:53;;;;;;;1.70;0.50;;;;;;;17.62;100.00;99966.16;105236;1254;66762;-48
2023/08/09 05:42:21;;;;;;;1.50;0.40;;;;;;;17.70;100.00;99969.27;104930;1252;71451;-49
2023/08/09 05:44:48;;;;;;;2.80;0.60;;;;;;;17.75;100.00;99976.09;105322;1257;60552;-48
2023/08/09 05:47:16;;;;;;;2.00;0.60;;;;;;;17.79;100.00;99977.98;105033;1254;60524;-52
2023/08/09 05:49:44;;;;;;;2.30;0.50;;;;;;;17.83;100.00;99985.17;104824;1254;72575;-49
2023/08/09 05:52:11;;;;;;;2.80;0.70;;;;;;;17.88;100.00;99991.48;104956;1254;66729;-50
2023/08/09 05:54:38;;;;;;;1.00;0.40;;;;;;;17.94;100.00;99996.50;104885;1254;72455;-49
2023/08/09 05:57:06;;;;;;;2.50;0.90;;;;;;;18.02;100.00;99996.26;105071;1254;61013;-51
2023/08/09 05:59:34;;;;;;;2.50;0.90;;;;;;;18.10;100.00;99999.94;105003;1254;60697;-50
2023/08/09 06:02:03;;;;;;;0.80;0.40;;;;;;;18.20;100.00;100000.16;105032;1256;73811;-50
2023/08/09 06:04:30;;;;;;;2.10;0.50;;;;;;;18.28;100.00;100008.08;105346;1257;66309;-49
2023/08/09 06:06:58;;;;;;;0.80;0.50;;;;;;;18.35;100.00;100007.17;104933;1257;72655;-50
2023/08/09 06:09:25;;;;;;;1.70;0.50;;;;;;;18.40;100.00;100003.87;104980;1254;61250;-54
2023/08/09 06:11:52;;;;;;;1.70;0.50;;;;;;;18.42;100.00;100009.73;104733;1256;59240;-50
2023/08/09 06:14:20;;;;;;;3.30;0.70;;;;;;;18.42;100.00;100012.98;105020;1254;73842;-48
2023/08/09 06:16:48;;;;;;;1.90;0.50;;;;;;;18.41;100.00;100017.76;104610;1254;66766;-50
2023/08/09 06:19:15;;;;;;;3.10;0.40;;;;;;;18.40;100.00;100019.63;104859;1257;72492;-49
2023/08/09 06:21:43;;;;;;;3.10;0.50;;;;;;;18.42;100.00;100017.13;105664;1253;60462;-47
2023/08/09 06:24:11;;;;;;;0.70;0.40;;;;;;;18.47;100.00;100019.14;104848;1254;60553;-48
2023/08/09 06:26:38;;;;;;;0.60;0.50;;;;;;;18.51;100.00;100020.04;104854;1259;73788;-49
2023/08/09 06:29:05;;;;;;;1.10;0.50;;;;;;;18.54;100.00;100017.64;104821;1254;68291;-46
2023/08/09 06:31:33;;;;;;;0.50;0.40;;;;;;;18.58;100.00;100020.52;105251;1259;72633;-47
2023/08/09 06:34:00;;;;;;;1.00;0.40;;;;;;;18.60;100.00;100024.19;104699;1256;61483;-48
2023/08/09 06:36:28;;;;;;;0.90;0.40;;;;;;;18.59;100.00;100024.23;104695;1254;60289;-48
2023/08/09 06:38:55;;;;;;;2.70;0.40;;;;;;;18.59;100.00;100029.13;104975;1255;74352;-50
2023/08/09 06:41:23;;;;;;;0.70;0.50;;;;;;;18.60;100.00;100029.30;104616;1254;66309;-49
2023/08/09 06:43:50;;;;;;;0.50;0.30;;;;;;;18.63;100.00;100033.38;104988;1254;72661;-50
2023/08/09 06:46:17;;;;;;;0.50;0.30;;;;;;;18.69;100.00;100036.90;104887;1259;60869;-52
2023/08/09 06:48:45;;;;;;;0.40;0.40;;;;;;;18.76;100.00;100039.61;105005;1259;60647;-49
2023/08/09 06:51:12;;;;;;;0.60;0.30;;;;;;;18.84;100.00;100044.23;105012;1254;73928;-49
2023/08/09 06:53:39;;;;;;;1.20;0.40;;;;;;;18.93;100.00;100044.13;104846;1259;68489;-50
2023/08/09 06:56:07;;;;;;;0.80;0.30;;;;;;;19.00;100.00;100045.21;104726;1254;71413;-48
2023/08/09 06:58:34;;;;;;;2.30;0.40;;;;;;;19.06;100.00;100049.84;104991;1254;60523;-51
2023/08/09 07:01:03;;;;;;;0.60;0.30;;;;;;;19.12;100.00;100051.55;104824;1254;60505;-52
2023/08/09 07:03:33;;;;;;;0.40;0.30;;;;;;;19.17;100.00;100053.28;108985;1254;72986;-50
2023/08/09 07:06:01;;;;;;;0.40;0.30;;;;;;;19.22;100.00;100053.08;108798;1254;69611;-52
2023/08/09 07:08:29;;;;;;;0.40;0.30;;;;;;;19.25;100.00;100058.44;108827;1254;71396;-51
2023/08/09 07:10:56;;;;;;;6.40;0.80;;;;;;;19.30;100.00;100057.94;108914;1254;60497;-51
2023/08/09 07:13:25;;;;;;;1.00;0.30;;;;;;;19.33;100.00;100056.91;104874;1254;60469;-48
2023/08/09 07:15:53;;;;;;;1.60;0.30;;;;;;;19.39;100.00;100066.30;104949;1255;72271;-52
2023/08/09 07:18:20;;;;;;;0.40;0.20;;;;;;;19.45;100.00;100068.38;104926;1254;66921;-52
2023/08/09 07:20:47;;;;;;;1.10;0.30;;;;;;;19.51;100.00;100070.09;104939;1257;72739;-50
2023/08/09 07:23:15;;;;;;;1.30;0.20;;;;;;;19.55;100.00;100068.66;105022;1258;60959;-52
2023/08/09 07:25:56;;;;;;;0.50;0.30;;;;;;;19.61;100.00;100070.38;104998;1255;60585;-51
2023/08/09 07:28:23;;;;;;;0.30;0.20;;;;;;;19.64;100.00;100072.81;105059;1254;73839;-49
2023/08/09 07:30:51;;;;;;;0.50;0.30;;;;;;;19.68;100.00;100072.73;105135;1254;65622;-49
2023/08/09 07:33:21;;;;;;;0.40;0.30;;;;;;;19.73;100.00;100075.79;105006;1254;72661;-50
2023/08/09 07:35:49;;;;;;;3.40;0.60;;;;;;;19.80;100.00;100079.41;104797;1257;61041;-50
2023/08/09 07:38:16;;;;;;;0.50;0.30;;;;;;;19.88;100.00;100080.16;105000;1254;60629;-49
2023/08/09 07:40:44;;;;;;;0.60;0.30;;;;;;;19.98;100.00;100082.78;105085;1255;73967;-49
2023/08/09 07:43:11;;;;;;;0.40;0.30;;;;;;;20.08;100.00;100089.98;105038;1259;66339;-49
2023/08/09 07:45:42;;;;;;;1.10;0.30;;;;;;;20.18;100.00;100091.91;104998;1254;71474;-48
2023/08/09 07:48:09;;;;;;;0.70;0.30;;;;;;;20.27;100.00;100095.84;104888;1258;60552;-50
2023/08/09 07:50:37;;;;;;;1.20;0.30;;;;;;;20.36;100.00;100092.27;105301;1254;60594;-49
2023/08/09 07:53:04;;;;;;;1.30;0.40;;;;;;;20.45;100.00;100097.55;105004;1255;72560;-50
2023/08/09 07:55:32;;;;;;;2.10;0.60;;;;;;;20.51;100.00;100100.63;104851;1254;68110;-53
2023/08/09 07:57:59;;;;;;;3.40;0.30;;;;;;;20.50;100.00;100099.66;104898;1258;72631;-51
2023/08/09 08:00:26;;;;;;;4.00;0.40;;;;;;;20.48;100.00;100101.65;105079;1254;60460;-50
2023/08/09 08:03:09;;;;;;;0.90;0.50;;;;;;;20.52;100.00;100103.48;104880;1259;61172;-52
2023/08/09 08:05:36;;;;;;;2.80;0.40;;;;;;;20.58;100.00;100107.13;104966;1259;73863;-49
2023/08/09 08:08:04;;;;;;;0.50;0.20;;;;;;;20.64;100.00;100110.48;104980;1254;67354;-50
2023/08/09 08:10:32;;;;;;;2.50;0.40;;;;;;;20.68;100.00;100113.27;105050;1257;71487;-50
2023/08/09 08:13:00;;;;;;;2.00;0.40;;;;;;;20.70;100.00;100113.05;104976;1259;60711;-47
2023/08/09 08:15:28;;;;;;;1.40;0.60;;;;;;;20.76;100.00;100114.01;104979;1254;60492;-51
2023/08/09 08:17:55;;;;;;;1.70;0.30;;;;;;;20.82;100.00;100115.51;105054;1259;72633;-49
2023/08/09 08:20:23;;;;;;;3.00;0.50;;;;;;;20.85;100.00;100110.70;104855;1254;67376;-51
2023/08/09 08:22:51;;;;;;;0.60;0.40;;;;;;;20.88;100.00;100116.50;105285;1254;73788;-51
2023/08/09 08:25:19;;;;;;;1.50;0.40;;;;;;;20.91;100.00;100116.07;104921;1254;62246;-53
2023/08/09 08:27:47;;;;;;;0.80;0.40;;;;;;;20.93;100.00;100121.83;105509;1254;60428;-50
2023/08/09 08:30:19;;;;;;;0.50;0.30;;;;;;;20.94;100.00;100121.44;104969;1260;73769;-50
2023/08/09 08:32:47;;;;;;;1.40;0.40;;;;;;;20.93;100.00;100125.73;104945;1254;65370;-50
2023/08/09 08:35:19;;;;;;;2.20;0.30;;;;;;;20.89;100.00;100122.59;105216;1254;72427;-52
2023/08/09 08:37:48;;;;;;;3.10;0.60;;;;;;;20.87;100.00;100119.34;105010;1254;60556;-52
2023/08/09 08:40:20;;;;;;;3.00;1.10;;;;;;;20.90;100.00;100122.14;104904;1253;60348;-49
2023/08/09 08:42:49;;;;;;;1.20;0.60;;;;;;;20.97;100.00;100121.34;105509;1254;72612;-51
2023/08/09 08:45:17;;;;;;;0.80;0.30;;;;;;;21.01;100.00;100121.55;105085;1259;66313;-49
2023/08/09 08:47:45;;;;;;;2.20;1.00;;;;;;;21.07;100.00;100126.67;105022;1255;71407;-54
2023/08/09 08:50:14;;;;;;;0.50;0.30;;;;;;;21.15;100.00;100124.75;104822;1258;60536;-50
2023/08/09 08:52:43;;;;;;;0.40;0.30;;;;;;;21.18;100.00;100124.31;105034;1256;60504;-51
2023/08/09 08:55:11;;;;;;;2.70;1.00;;;;;;;21.16;100.00;100122.27;105916;1254;72847;-49
2023/08/09 08:57:39;;;;;;;1.60;0.50;;;;;;;21.14;100.00;100131.33;105563;1254;65786;-49
2023/08/09 09:00:08;;;;;;;1.10;0.70;;;;;;;21.12;100.00;100133.90;105188;1259;72183;-50
2023/08/09 09:02:47;;;;;;;1.30;0.60;;;;;;;21.08;100.00;100135.16;105274;1257;60495;-48
2023/08/09 09:05:16;;;;;;;1.00;0.50;;;;;;;21.04;100.00;100131.30;105299;1254;60505;-51
2023/08/09 09:07:45;;;;;;;3.20;0.60;;;;;;;20.99;100.00;100131.94;105721;1260;74233;-50
2023/08/09 09:10:13;;;;;;;1.10;0.50;;;;;;;20.96;100.00;100129.67;105066;1254;67283;-50
2023/08/09 09:12:41;;;;;;;0.60;0.50;;;;;;;20.91;100.00;100128.02;106382;1254;72684;-49
2023/08/09 09:15:09;;;;;;;2.10;0.40;;;;;;;20.88;100.00;100125.83;105101;1257;60438;-49
2023/08/09 09:17:38;;;;;;;1.00;0.40;;;;;;;20.88;100.00;100124.48;105136;1254;60559;-50
2023/08/09 09:20:29;;;;;;;1.50;0.40;;;;;;;20.93;100.00;100123.12;105034;1259;74135;-50
2023/08/09 09:22:59;;;;;;;0.40;0.30;;;;;;;20.98;100.00;100128.15;105961;1259;65532;-51
2023/08/09 09:25:27;;;;;;;0.60;0.30;;;;;;;20.98;100.00;100125.99;105445;1254;72641;-51
2023/08/09 09:27:56;;;;;;;2.00;0.30;;;;;;;20.94;100.00;100123.83;105022;1254;60501;-51
2023/08/09 09:30:24;;;;;;;0.80;0.40;;;;;;;20.91;100.00;100124.28;106694;1254;60761;-49
2023/08/09 09:32:52;;;;;;;0.70;0.30;;;;;;;20.94;100.00;100121.26;109173;1253;73882;-51
2023/08/09 09:35:20;;;;;;;0.90;0.30;;;;;;;21.01;100.00;100123.59;109184;1253;65685;-51
2023/08/09 09:37:51;;;;;;;2.70;0.40;;;;;;;21.08;100.00;100121.11;109161;1254;71317;-51
2023/08/09 09:40:25;;;;;;;0.60;0.30;;;;;;;21.14;100.00;100119.11;109075;1254;58742;-52
2023/08/09 09:42:53;;;;;;;1.80;0.20;;;;;;;21.16;100.00;100117.87;109156;1254;60133;-51
2023/08/09 09:45:25;;;;;;;0.40;0.20;;;;;;;21.20;100.00;100113.21;109137;1254;74737;-53
2023/08/09 09:47:53;;;;;;;0.40;0.30;;;;;;;21.29;100.00;100108.79;109087;1257;67053;-50
2023/08/09 09:50:27;;;;;;;0.40;0.30;;;;;;;21.42;100.00;100106.69;109183;1254;72714;-51
2023/08/09 09:52:54;;;;;;;0.90;0.20;;;;;;;21.60;100.00;100117.55;108847;1255;60073;-51
2023/08/09 09:55:26;;;;;;;0.30;0.30;;;;;;;21.75;100.00;100120.00;105311;1254;60572;-49
2023/08/09 09:57:54;;;;;;;0.60;0.30;;;;;;;21.83;100.00;100117.44;109143;1254;72644;-51
2023/08/09 10:00:25;;;;;;;1.30;0.30;;;;;;;21.83;100.00;100117.30;109142;1254;67776;-52
2023/08/09 10:02:52;;;;;;;0.50;0.30;;;;;;;21.77;100.00;100115.98;109067;1256;58552;-52
2023/08/09 10:05:27;;;;;;;3.10;0.30;;;;;;;21.68;100.00;100113.34;109144;1254;60078;-53
2023/08/09 10:10:01;;;;;;;0.60;0.40;;;;;;;21.60;100.00;100140.49;101745;1297;601550;-50
2023/08/09 10:12:33;;;;;;;0.50;0.30;;;;;;;21.57;100.00;100150.30;108875;1254;58786;-52
2023/08/09 10:15:01;;;;;;;0.80;0.40;;;;;;;21.60;100.00;100141.46;106665;1256;59962;-51
2023/08/09 10:17:29;;;;;;;0.70;0.30;;;;;;;21.64;100.00;100135.02;104561;1254;72734;-49
2023/08/09 10:19:58;;;;;;;1.40;0.30;;;;;;;21.70;100.00;100133.45;104853;1254;65519;-49
2023/08/09 10:22:26;;;;;;;0.90;0.30;;;;;;;21.78;100.00;100130.88;104808;1253;72699;-51
2023/08/09 10:24:57;;;;;;;1.70;0.40;;;;;;;21.90;100.00;100130.16;104938;1258;60086;-48
2023/08/09 10:27:51;;;;;;;0.30;0.20;;;;;;;22.04;100.00;100127.52;104873;1253;59253;-52
2023/08/09 10:30:26;;;;;;;0.30;0.30;;;;;;;22.19;100.00;100125.73;105013;1254;72715;-51
2023/08/09 10:32:55;;;;;;;1.80;0.40;;;;;;;22.34;100.00;100130.77;105544;1256;67598;-49
2023/08/09 10:35:43;;;;;;;0.40;0.30;;;;;;;22.43;100.00;100126.43;104937;1256;71487;-53
2023/08/09 10:38:23;;;;;;;0.40;0.30;;;;;;;22.56;100.00;100130.40;104889;1253;59850;-51
2023/08/09 10:40:53;;;;;;;4.80;0.40;;;;;;;22.66;100.00;100127.61;104594;1256;59921;-51
2023/08/09 10:43:26;;;;;;;0.80;0.30;;;;;;;22.74;100.00;100121.83;104780;1253;74095;-50
2023/08/09 10:45:53;;;;;;;0.40;0.30;;;;;;;22.84;100.00;100128.34;105117;1258;66773;-50
2023/08/09 10:48:27;;;;;;;0.80;0.30;;;;;;;22.91;100.00;100134.98;104736;1254;71207;-50
2023/08/09 10:51:07;;;;;;;3.50;0.20;;;;;;;22.99;100.00;100131.17;104984;1255;60397;-51
2023/08/09 10:53:57;;;;;;;0.40;0.20;;;;;;;23.06;100.00;100133.75;104959;1253;60075;-50
2023/08/09 10:56:35;;;;;;;0.40;0.30;;;;;;;23.09;100.00;100133.29;104835;1253;73048;-50
2023/08/09 10:59:05;;;;;;;0.30;0.30;;;;;;;23.13;100.00;100130.41;104804;1253;66957;-49
2023/08/09 11:01:33;;;;;;;2.20;0.30;;;;;;;23.15;100.00;100128.73;105453;1254;71346;-51
2023/08/09 11:04:08;;;;;;;0.40;0.20;;;;;;;23.17;100.00;100120.27;105135;1254;60046;-48
2023/08/09 11:06:41;;;;;;;0.50;0.30;;;;;;;23.22;100.00;100124.04;104858;1260;59656;-49
2023/08/09 11:09:17;;;;;;;0.20;0.20;;;;;;;23.28;100.00;100120.67;104727;1256;73042;-50
2023/08/09 11:11:46;;;;;;;0.30;0.20;;;;;;;23.36;100.00;100125.23;105672;1257;66541;-49
2023/08/09 11:14:14;;;;;;;1.50;0.20;;;;;;;23.42;100.00;100127.83;105296;1256;71456;-49
2023/08/09 11:16:43;;;;;;;0.20;0.10;;;;;;;23.41;100.00;100122.02;105054;1258;60612;-53
2023/08/09 11:19:15;;;;;;;0.40;0.20;;;;;;;23.40;100.00;100120.80;105572;1254;59766;-50
2023/08/09 11:21:59;;;;;;;0.30;0.30;;;;;;;23.43;100.00;100118.17;105065;1258;73022;-53
2023/08/09 11:24:27;;;;;;;0.30;0.20;;;;;;;23.47;100.00;100115.05;104809;1258;66314;-49